createdAt,value
2022-08-18T00:00:25.299Z,26.32
2022-08-18T00:01:40.805Z,25.97
2022-08-18T00:02:49.746Z,25.67
2022-08-18T00:04:14.784Z,25.48
2022-08-18T00:05:26.153Z,25.81
2022-08-18T00:06:29.910Z,26.21
2022-08-18T00:07:33.812Z,26.61
2022-08-18T00:08:38.493Z,26.94
2022-08-18T00:09:41.761Z,27.22
2022-08-18T00:10:43.576Z,27.43
2022-08-18T00:11:45.707Z,27.58
2022-08-18T00:12:47.480Z,27.51
2022-08-18T00:13:49.345Z,27.22
2022-08-18T00:14:52.581Z,26.86
2022-08-18T00:15:54.550Z,26.49
2022-08-18T00:16:56.409Z,26.16
2022-08-18T00:17:58.285Z,25.87
2022-08-18T00:19:00.298Z,25.61
2022-08-18T00:20:04.285Z,25.52
2022-08-18T00:21:06.068Z,25.75
2022-08-18T00:22:08.760Z,26.14
2022-08-18T00:23:16.515Z,26.57
2022-08-18T00:24:18.568Z,26.89
2022-08-18T00:25:20.729Z,27.16
2022-08-18T00:26:22.551Z,27.38
2022-08-18T00:27:30.572Z,27.55
2022-08-18T00:28:32.421Z,27.56
2022-08-18T00:29:34.114Z,27.29
2022-08-18T00:30:35.839Z,26.93
2022-08-18T00:31:37.563Z,26.57
2022-08-18T00:32:44.002Z,26.23
2022-08-18T00:33:45.702Z,25.91
2022-08-18T00:34:47.453Z,25.67
2022-08-18T00:35:49.962Z,25.50
2022-08-18T00:36:51.731Z,25.65
2022-08-18T00:37:56.112Z,26.02
2022-08-18T00:38:58.109Z,26.43
2022-08-18T00:40:01.359Z,26.79
2022-08-18T00:41:03.811Z,27.08
2022-08-18T00:42:28.840Z,27.31
2022-08-18T00:43:45.467Z,27.56
2022-08-18T00:44:47.197Z,27.52
2022-08-18T00:45:49.576Z,27.23
2022-08-18T00:46:51.291Z,26.87
2022-08-18T00:47:53.727Z,26.51
2022-08-18T00:48:56.632Z,26.17
2022-08-18T00:49:58.812Z,25.87
2022-08-18T00:51:08.789Z,25.62
2022-08-18T00:52:14.172Z,25.52
2022-08-18T00:53:33.391Z,25.78
2022-08-18T00:54:37.649Z,26.30
2022-08-18T00:55:43.768Z,26.70
2022-08-18T00:57:02.266Z,27.09
2022-08-18T00:58:15.892Z,27.37
2022-08-18T00:59:47.029Z,27.60
2022-08-18T01:00:51.432Z,27.61
2022-08-18T01:02:02.454Z,27.32
2022-08-18T01:03:12.687Z,26.90
2022-08-18T01:04:22.023Z,26.50
2022-08-18T01:05:41.196Z,26.15
2022-08-18T01:06:51.852Z,25.81
2022-08-18T01:07:53.924Z,25.55
2022-08-18T01:08:56.179Z,25.54
2022-08-18T01:10:01.499Z,25.84
2022-08-18T01:11:03.409Z,26.25
2022-08-18T01:12:44.118Z,26.61
2022-08-18T01:13:33.008Z,27.01
2022-08-18T01:14:34.797Z,27.27
2022-08-18T01:15:37.918Z,27.44
2022-08-18T01:16:58.204Z,27.56
2022-08-18T01:18:25.208Z,27.34
2022-08-18T01:19:46.877Z,26.84
2022-08-18T01:21:23.381Z,26.36
2022-08-18T01:22:49.906Z,25.89
2022-08-18T01:23:54.619Z,25.54
2022-08-18T01:25:19.728Z,25.52
2022-08-18T01:26:24.222Z,25.96
2022-08-18T01:27:27.059Z,26.36
2022-08-18T01:28:33.952Z,26.72
2022-08-18T01:29:41.485Z,27.05
2022-08-18T01:30:56.132Z,27.31
2022-08-18T01:31:57.826Z,27.54
2022-08-18T01:32:59.514Z,27.62
2022-08-18T01:34:01.955Z,27.43
2022-08-18T01:35:08.570Z,27.09
2022-08-18T01:36:20.918Z,26.68
2022-08-18T01:37:24.488Z,26.28
2022-08-18T01:38:26.783Z,25.96
2022-08-18T01:41:01.823Z,25.45
2022-08-18T01:41:24.575Z,25.70
2022-08-18T01:42:19.225Z,25.66
2022-08-18T01:43:21.399Z,26.08
2022-08-18T01:44:23.113Z,26.47
2022-08-18T01:45:24.868Z,26.79
2022-08-18T01:46:29.656Z,27.05
2022-08-18T01:47:47.789Z,27.27
2022-08-18T01:48:51.179Z,27.47
2022-08-18T01:49:53.348Z,27.49
2022-08-18T01:50:56.905Z,27.24
2022-08-18T01:51:58.579Z,26.86
2022-08-18T01:53:01.206Z,26.47
2022-08-18T01:54:05.220Z,26.10
2022-08-18T01:55:08.030Z,25.77
2022-08-18T01:56:09.846Z,25.49
2022-08-18T01:57:13.512Z,25.34
2022-08-18T01:58:15.238Z,25.52
2022-08-18T01:59:17.462Z,25.89
2022-08-18T02:00:19.352Z,26.29
2022-08-18T02:01:24.683Z,26.63
2022-08-18T02:02:39.677Z,26.97
2022-08-18T02:03:46.855Z,27.19
2022-08-18T02:04:50.263Z,27.38
2022-08-18T02:05:51.996Z,27.51
2022-08-18T02:06:55.995Z,27.43
2022-08-18T02:07:57.931Z,27.12
2022-08-18T02:08:59.711Z,26.76
2022-08-18T02:10:02.043Z,26.40
2022-08-18T02:11:05.370Z,26.07
2022-08-18T02:12:07.953Z,25.78
2022-08-18T02:13:10.118Z,25.53
2022-08-18T02:14:11.809Z,25.48
2022-08-18T02:15:13.594Z,25.74
2022-08-18T02:16:16.877Z,26.14
2022-08-18T02:17:19.082Z,26.54
2022-08-18T02:18:35.388Z,26.87
2022-08-18T02:19:48.016Z,27.23
2022-08-18T02:20:50.026Z,27.44
2022-08-18T02:21:53.210Z,27.58
2022-08-18T02:22:55.112Z,27.47
2022-08-18T02:23:56.863Z,27.16
2022-08-18T02:24:58.566Z,26.78
2022-08-18T02:26:05.823Z,26.42
2022-08-18T02:27:09.200Z,26.08
2022-08-18T02:28:11.717Z,25.80
2022-08-18T02:29:13.712Z,25.55
2022-08-18T02:30:19.107Z,25.46
2022-08-18T02:31:24.288Z,25.72
2022-08-18T02:32:26.796Z,26.14
2022-08-18T02:33:31.197Z,26.55
2022-08-18T02:34:33.515Z,26.87
2022-08-18T02:35:37.101Z,27.13
2022-08-18T02:36:39.592Z,27.35
2022-08-18T02:37:47.801Z,27.52
2022-08-18T02:38:54.767Z,27.50
2022-08-18T02:40:01.593Z,27.16
2022-08-18T02:41:06.967Z,26.78
2022-08-18T02:42:09.270Z,26.40
2022-08-18T02:43:11.004Z,26.06
2022-08-18T02:44:12.719Z,25.77
2022-08-18T02:45:14.906Z,25.53
2022-08-18T02:46:16.654Z,25.47
2022-08-18T02:47:22.335Z,25.74
2022-08-18T02:48:36.009Z,26.16
2022-08-18T02:49:37.864Z,26.62
2022-08-18T02:50:48.834Z,26.93
2022-08-18T02:51:52.848Z,27.21
2022-08-18T02:52:54.846Z,27.41
2022-08-18T02:53:59.312Z,27.49
2022-08-18T02:55:02.917Z,27.28
2022-08-18T02:56:39.954Z,26.92
2022-08-18T02:57:48.899Z,26.33
2022-08-18T02:58:59.547Z,25.96
2022-08-18T03:00:01.252Z,25.64
2022-08-18T03:01:03.066Z,25.39
2022-08-18T03:02:07.465Z,25.30
2022-08-18T03:03:09.252Z,25.56
2022-08-18T03:04:14.370Z,25.96
2022-08-18T03:05:17.128Z,26.36
2022-08-18T03:06:21.167Z,26.69
2022-08-18T03:07:22.880Z,26.96
2022-08-18T03:08:24.648Z,27.17
2022-08-18T03:09:27.264Z,27.32
2022-08-18T03:10:33.200Z,27.27
2022-08-18T03:11:37.349Z,26.93
2022-08-18T03:12:39.108Z,26.53
2022-08-18T03:13:40.846Z,26.15
2022-08-18T03:14:43.599Z,25.80
2022-08-18T03:15:45.328Z,25.49
2022-08-18T03:16:53.578Z,25.25
2022-08-18T03:17:56.361Z,25.29
2022-08-18T03:18:59.244Z,25.62
2022-08-18T03:20:01.059Z,26.02
2022-08-18T03:21:07.717Z,26.39
2022-08-18T03:22:27.801Z,26.69
2022-08-18T03:23:31.416Z,26.99
2022-08-18T03:24:33.306Z,27.16
2022-08-18T03:25:35.071Z,27.31
2022-08-18T03:26:42.766Z,27.35
2022-08-18T03:27:44.485Z,27.09
2022-08-18T03:28:49.790Z,26.72
2022-08-18T03:29:51.762Z,26.31
2022-08-18T03:30:53.406Z,25.96
2022-08-18T03:31:55.443Z,25.64
2022-08-18T03:32:57.858Z,25.37
2022-08-18T03:34:01.575Z,25.25
2022-08-18T03:35:04.260Z,25.48
2022-08-18T03:36:12.196Z,25.87
2022-08-18T03:37:16.032Z,26.29
2022-08-18T03:38:17.801Z,26.62
2022-08-18T03:39:22.963Z,26.88
2022-08-18T03:40:24.733Z,27.11
2022-08-18T03:41:43.954Z,27.28
2022-08-18T03:42:50.776Z,27.29
2022-08-18T03:43:53.169Z,27.02
2022-08-18T03:44:54.908Z,26.64
2022-08-18T03:46:01.513Z,26.26
2022-08-18T03:47:04.063Z,25.90
2022-08-18T03:48:05.861Z,25.60
2022-08-18T03:49:08.039Z,25.34
2022-08-18T03:50:09.921Z,25.25
2022-08-18T03:51:17.760Z,25.52
2022-08-18T03:52:19.964Z,25.92
2022-08-18T03:53:21.788Z,26.30
2022-08-18T03:54:23.517Z,26.62
2022-08-18T03:55:29.221Z,26.88
2022-08-18T03:56:36.328Z,27.10
2022-08-18T03:57:38.907Z,27.27
2022-08-18T03:58:41.246Z,27.18
2022-08-18T03:59:43.547Z,26.88
2022-08-18T04:00:45.196Z,26.50
2022-08-18T04:01:49.304Z,26.12
2022-08-18T04:02:51.726Z,25.78
2022-08-18T04:04:01.661Z,25.49
2022-08-18T04:05:05.435Z,25.23
2022-08-18T04:06:12.099Z,25.28
2022-08-18T04:07:17.353Z,25.64
2022-08-18T04:08:19.156Z,26.06
2022-08-18T04:09:24.738Z,26.41
2022-08-18T04:10:26.681Z,26.73
2022-08-18T04:11:28.656Z,26.95
2022-08-18T04:12:38.578Z,27.15
2022-08-18T04:13:41.464Z,27.30
2022-08-18T04:14:47.739Z,27.35
2022-08-18T04:15:49.557Z,27.12
2022-08-18T04:16:52.333Z,26.75
2022-08-18T04:18:03.285Z,26.37
2022-08-18T04:19:06.628Z,25.97
2022-08-18T04:20:08.911Z,25.65
2022-08-18T04:21:13.721Z,25.41
2022-08-18T04:22:17.134Z,25.47
2022-08-18T04:23:19.534Z,25.82
2022-08-18T04:24:21.372Z,26.20
2022-08-18T04:25:23.123Z,26.55
2022-08-18T04:26:24.879Z,26.85
2022-08-18T04:27:28.889Z,27.09
2022-08-18T04:28:31.439Z,27.30
2022-08-18T04:29:33.199Z,27.48
2022-08-18T04:30:36.133Z,27.62
2022-08-18T04:31:38.090Z,27.65
2022-08-18T04:32:39.919Z,27.44
2022-08-18T04:33:42.317Z,27.08
2022-08-18T04:34:44.474Z,26.71
2022-08-18T04:35:46.996Z,26.36
2022-08-18T04:36:51.381Z,26.05
2022-08-18T04:37:53.188Z,25.79
2022-08-18T04:38:56.617Z,25.77
2022-08-18T04:39:59.815Z,26.06
2022-08-18T04:41:01.682Z,26.45
2022-08-18T04:42:04.972Z,26.83
2022-08-18T04:43:06.986Z,27.13
2022-08-18T04:44:10.668Z,27.38
2022-08-18T04:45:13.213Z,27.57
2022-08-18T04:46:14.967Z,27.72
2022-08-18T04:47:16.842Z,27.74
2022-08-18T04:48:18.656Z,27.52
2022-08-18T04:49:26.088Z,27.15
2022-08-18T04:50:28.087Z,26.73
2022-08-18T04:52:36.669Z,26.36
2022-08-18T04:53:12.333Z,25.97
2022-08-18T04:54:14.028Z,25.75
2022-08-18T04:55:15.789Z,25.90
2022-08-18T04:56:27.660Z,26.26
2022-08-18T04:57:33.097Z,26.70
2022-08-18T04:58:36.402Z,27.05
2022-08-18T04:59:40.288Z,27.31
2022-08-18T05:00:44.147Z,27.52
2022-08-18T05:01:47.921Z,27.70
2022-08-18T05:02:49.926Z,27.83
2022-08-18T05:03:53.900Z,27.72
2022-08-18T05:04:55.640Z,27.39
2022-08-18T05:05:59.846Z,27.02
2022-08-18T05:07:01.607Z,26.63
2022-08-18T05:08:03.673Z,26.31
2022-08-18T05:09:08.937Z,26.04
2022-08-18T05:10:12.495Z,25.80
2022-08-18T05:11:15.526Z,25.86
2022-08-18T05:12:17.658Z,26.20
2022-08-18T05:13:22.101Z,26.62
2022-08-18T05:14:24.775Z,26.98
2022-08-18T05:15:26.497Z,27.28
2022-08-18T05:16:32.792Z,27.52
2022-08-18T05:17:39.559Z,27.74
2022-08-18T05:18:42.760Z,27.86
2022-08-18T05:19:45.800Z,27.71
2022-08-18T05:20:49.565Z,27.37
2022-08-18T05:21:53.451Z,26.99
2022-08-18T05:23:01.558Z,26.61
2022-08-18T05:24:05.669Z,26.32
2022-08-18T05:25:12.317Z,26.05
2022-08-18T05:26:15.651Z,25.89
2022-08-18T05:27:17.336Z,26.06
2022-08-18T05:28:19.452Z,26.43
2022-08-18T05:29:21.962Z,26.83
2022-08-18T05:30:25.609Z,27.21
2022-08-18T05:31:29.086Z,27.51
2022-08-18T05:32:48.176Z,27.76
2022-08-18T05:33:53.108Z,28.01
2022-08-18T05:34:54.937Z,28.09
2022-08-18T05:36:03.856Z,27.90
2022-08-18T05:37:21.143Z,27.54
2022-08-18T05:38:42.527Z,27.12
2022-08-18T05:40:08.903Z,26.72
2022-08-18T05:41:26.187Z,26.38
2022-08-18T05:42:35.337Z,26.20
2022-08-18T05:43:41.627Z,26.40
2022-08-18T05:44:55.956Z,26.92
2022-08-18T05:46:02.615Z,27.35
2022-08-18T05:47:32.224Z,27.75
2022-08-18T05:48:39.767Z,28.18
2022-08-18T05:49:49.125Z,28.45
2022-08-18T05:50:51.291Z,28.55
2022-08-18T05:52:13.970Z,28.35
2022-08-18T05:53:40.983Z,27.91
2022-08-18T05:55:11.086Z,27.46
2022-08-18T05:56:32.451Z,27.06
2022-08-18T05:57:47.187Z,26.77
2022-08-18T05:58:55.780Z,26.55
2022-08-18T05:59:58.838Z,26.41
2022-08-18T06:01:22.910Z,26.59
2022-08-18T06:02:39.465Z,27.15
2022-08-18T06:03:52.811Z,27.68
2022-08-18T06:05:05.939Z,28.10
2022-08-18T06:06:14.229Z,28.44
2022-08-18T06:07:25.949Z,28.53
2022-08-18T06:08:44.879Z,28.25
2022-08-18T06:09:54.954Z,27.88
2022-08-18T06:10:56.928Z,27.53
2022-08-18T06:12:20.865Z,27.27
2022-08-18T06:13:22.893Z,26.96
2022-08-18T06:14:25.310Z,26.78
2022-08-18T06:15:54.604Z,26.62
2022-08-18T06:17:13.251Z,26.61
2022-08-18T06:18:30.049Z,27.07
2022-08-18T06:19:43.897Z,27.64
2022-08-18T06:21:12.915Z,28.12
2022-08-18T06:22:36.261Z,28.58
2022-08-18T06:24:12.428Z,28.74
2022-08-18T06:25:34.690Z,28.44
2022-08-18T06:27:00.378Z,28.03
2022-08-18T06:28:14.151Z,27.66
2022-08-18T06:29:37.380Z,27.40
2022-08-18T06:30:41.683Z,27.15
2022-08-18T06:32:14.454Z,26.99
2022-08-18T06:34:00.697Z,26.79
2022-08-18T06:35:18.414Z,27.08
2022-08-18T06:36:45.354Z,27.67
2022-08-18T06:38:38.475Z,28.31
2022-08-18T06:39:50.565Z,28.93
2022-08-18T06:41:41.764Z,29.11
2022-08-18T06:42:36.575Z,28.80
2022-08-18T06:44:03.246Z,28.46
2022-08-18T06:45:14.095Z,28.08
2022-08-18T06:46:23.985Z,27.81
2022-08-18T06:47:44.619Z,27.61
2022-08-18T06:48:55.138Z,27.42
2022-08-18T06:50:15.380Z,27.28
2022-08-18T06:51:21.750Z,27.34
2022-08-18T06:52:34.308Z,27.76
2022-08-18T06:54:00.247Z,28.32
2022-08-18T06:55:11.553Z,28.92
2022-08-18T06:56:25.798Z,29.29
2022-08-18T06:57:33.527Z,29.41
2022-08-18T06:58:35.569Z,29.21
2022-08-18T06:59:38.468Z,28.95
2022-08-18T07:01:07.913Z,28.66
2022-08-18T07:02:27.664Z,28.32
2022-08-18T07:03:35.400Z,28.08
2022-08-18T07:04:40.173Z,27.92
2022-08-18T07:06:02.763Z,27.77
2022-08-18T07:07:15.627Z,27.63
2022-08-18T07:08:35.641Z,27.53
2022-08-18T07:09:40.557Z,27.45
2022-08-18T07:10:51.440Z,27.38
2022-08-18T07:12:08.795Z,27.33
2022-08-18T07:13:13.070Z,27.41
2022-08-18T07:14:24.426Z,27.82
2022-08-18T07:15:26.185Z,28.41
2022-08-18T07:16:54.445Z,28.88
2022-08-18T07:17:49.487Z,29.37
2022-08-18T07:18:52.584Z,29.46
2022-08-18T07:20:01.465Z,29.29
2022-08-18T07:21:03.197Z,28.99
2022-08-18T07:22:14.517Z,28.73
2022-08-18T07:23:39.180Z,28.47
2022-08-18T07:24:45.251Z,28.22
2022-08-18T07:25:58.401Z,28.04
2022-08-18T07:27:17.579Z,27.88
2022-08-18T07:28:47.644Z,27.76
2022-08-18T07:30:30.037Z,27.66
2022-08-18T07:31:46.516Z,27.57
2022-08-18T07:33:12.592Z,27.52
2022-08-18T07:34:27.466Z,27.45
2022-08-18T07:35:45.791Z,27.39
2022-08-18T07:37:09.512Z,27.34
2022-08-18T07:38:45.605Z,27.30
2022-08-18T07:40:18.118Z,27.29
2022-08-18T07:41:31.877Z,27.62
2022-08-18T07:43:00.708Z,28.27
2022-08-18T07:44:45.454Z,29.05
2022-08-18T07:45:48.020Z,29.66
2022-08-18T07:47:18.207Z,29.66
2022-08-18T07:48:38.234Z,29.39
2022-08-18T07:50:13.626Z,29.11
2022-08-18T07:51:13.724Z,28.84
2022-08-18T07:52:36.648Z,28.66
2022-08-18T07:54:44.941Z,28.49
2022-08-18T07:55:37.133Z,28.35
2022-08-18T07:56:57.515Z,28.28
2022-08-18T07:58:25.062Z,28.20
2022-08-18T07:59:39.689Z,28.13
2022-08-18T08:00:58.611Z,28.10
2022-08-18T08:02:28.596Z,28.07
2022-08-18T08:03:51.884Z,28.04
2022-08-18T08:05:30.975Z,28.01
2022-08-18T08:06:41.346Z,27.99
2022-08-18T08:08:10.265Z,27.97
2022-08-18T08:09:24.434Z,27.96
2022-08-18T08:10:55.037Z,27.95
2022-08-18T08:12:14.453Z,27.94
2022-08-18T08:13:54.693Z,27.93
2022-08-18T08:15:17.678Z,27.92
2022-08-18T08:16:47.314Z,27.90
2022-08-18T08:18:25.395Z,27.88
2022-08-18T08:19:59.473Z,27.86
2022-08-18T08:21:20.092Z,27.85
2022-08-18T08:22:36.276Z,27.84
2022-08-18T08:23:54.500Z,27.85
2022-08-18T08:25:45.296Z,27.87
2022-08-18T08:27:18.356Z,27.91
2022-08-18T08:28:41.638Z,27.96
2022-08-18T08:30:08.940Z,27.99
2022-08-18T08:31:43.252Z,27.98
2022-08-18T08:33:06.562Z,27.96
2022-08-18T08:34:41.647Z,27.90
2022-08-18T08:35:58.921Z,27.88
2022-08-18T08:37:04.491Z,27.86
2022-08-18T08:38:39.293Z,27.86
2022-08-18T08:39:58.010Z,27.86
2022-08-18T08:41:07.285Z,27.87
2022-08-18T08:42:37.450Z,27.89
2022-08-18T08:43:53.689Z,27.91
2022-08-18T08:45:01.258Z,27.93
2022-08-18T08:46:11.333Z,27.97
2022-08-18T08:47:24.551Z,28.00
2022-08-18T08:48:35.652Z,28.03
2022-08-18T08:49:46.095Z,28.04
2022-08-18T08:51:04.077Z,28.06
2022-08-18T08:52:23.201Z,28.09
2022-08-18T08:53:36.438Z,28.12
2022-08-18T08:54:50.222Z,28.16
2022-08-18T08:56:02.737Z,28.20
2022-08-18T08:57:07.144Z,28.25
2022-08-18T08:58:33.772Z,28.28
2022-08-18T08:59:39.539Z,28.31
2022-08-18T09:00:43.587Z,28.34
2022-08-18T09:02:08.014Z,28.38
2022-08-18T09:03:42.735Z,28.43
2022-08-18T09:04:54.718Z,28.49
2022-08-18T09:06:32.030Z,28.54
2022-08-18T09:07:51.670Z,28.57
2022-08-18T09:09:05.194Z,28.58
2022-08-18T09:10:28.441Z,28.59
2022-08-18T09:11:45.526Z,28.59
2022-08-18T09:13:05.411Z,28.58
2022-08-18T09:14:39.112Z,28.60
2022-08-18T09:16:18.513Z,28.63
2022-08-18T09:17:50.838Z,28.66
2022-08-18T09:19:12.883Z,28.71
2022-08-18T09:20:33.076Z,28.75
2022-08-18T09:21:46.815Z,28.82
2022-08-18T09:22:56.289Z,28.87
2022-08-18T09:24:20.918Z,28.94
2022-08-18T09:25:43.849Z,29.00
2022-08-18T09:27:14.221Z,29.06
2022-08-18T09:28:25.991Z,29.13
2022-08-18T09:30:01.970Z,29.19
2022-08-18T09:31:08.561Z,29.27
2022-08-18T09:32:20.016Z,29.34
2022-08-18T09:33:44.434Z,29.41
2022-08-18T09:35:17.160Z,29.48
2022-08-18T09:36:31.120Z,29.56
2022-08-18T09:39:56.532Z,29.69
2022-08-18T09:41:27.244Z,29.77
2022-08-18T09:44:21.587Z,29.87
2022-08-18T09:45:34.451Z,29.92
2022-08-18T09:46:47.947Z,29.98
2022-08-18T09:47:52.878Z,30.03
2022-08-18T09:49:26.769Z,30.06
2022-08-18T09:50:28.478Z,30.08
2022-08-18T09:51:39.928Z,30.08
2022-08-18T09:52:42.672Z,30.10
2022-08-18T09:53:46.066Z,30.11
2022-08-18T09:54:59.544Z,30.11
2022-08-18T09:56:05.177Z,30.11
2022-08-18T09:57:19.661Z,30.13
2022-08-18T09:58:26.190Z,30.16
2022-08-18T09:59:34.283Z,30.20
2022-08-18T10:00:36.465Z,30.24
2022-08-18T10:01:41.939Z,30.25
2022-08-18T10:02:47.617Z,30.26
2022-08-18T10:04:15.091Z,30.28
2022-08-18T10:05:22.570Z,30.30
2022-08-18T10:06:28.020Z,30.35
2022-08-18T10:07:41.883Z,30.37
2022-08-18T10:09:02.678Z,30.39
2022-08-18T10:11:00.897Z,30.41
2022-08-18T10:11:59.868Z,30.44
2022-08-18T10:13:24.743Z,30.48
2022-08-18T10:14:55.641Z,30.53
2022-08-18T10:16:21.372Z,30.56
2022-08-18T10:17:51.076Z,30.60
2022-08-18T10:19:33.949Z,30.67
2022-08-18T10:20:56.452Z,30.70
2022-08-18T10:22:01.458Z,30.74
2022-08-18T10:23:04.644Z,30.77
2022-08-18T10:25:46.475Z,30.85
2022-08-18T10:26:54.030Z,30.90
2022-08-18T10:27:57.738Z,30.93
2022-08-18T10:29:07.930Z,30.96
2022-08-18T10:30:31.056Z,31.00
2022-08-18T10:31:57.856Z,31.04
2022-08-18T10:33:18.025Z,31.08
2022-08-18T10:34:52.392Z,31.12
2022-08-18T10:35:59.638Z,31.17
2022-08-18T10:37:06.315Z,31.21
2022-08-18T10:38:22.855Z,31.25
2022-08-18T10:39:46.535Z,31.29
2022-08-18T10:41:09.415Z,31.33
2022-08-18T10:42:35.986Z,31.37
2022-08-18T10:43:57.645Z,31.42
2022-08-18T10:45:10.498Z,31.48
2022-08-18T10:46:25.005Z,31.52
2022-08-18T10:47:33.486Z,31.55
2022-08-18T10:48:35.747Z,31.58
2022-08-18T10:49:49.289Z,31.61
2022-08-18T10:51:59.537Z,31.66
2022-08-18T10:55:16.638Z,31.77
2022-08-18T10:56:49.942Z,31.72
2022-08-18T10:58:09.609Z,31.63
2022-08-18T10:59:47.677Z,31.57
2022-08-18T11:01:20.551Z,31.51
2022-08-18T11:02:48.967Z,31.50
2022-08-18T11:04:14.098Z,31.48
2022-08-18T11:05:24.710Z,31.46
2022-08-18T11:06:27.821Z,31.45
2022-08-18T11:07:34.412Z,31.44
2022-08-18T11:08:45.075Z,31.44
2022-08-18T11:10:04.458Z,31.42
2022-08-18T11:11:37.189Z,31.38
2022-08-18T11:12:52.904Z,31.31
2022-08-18T11:14:08.661Z,31.24
2022-08-18T11:15:23.615Z,31.18
2022-08-18T11:16:43.886Z,31.11
2022-08-18T11:18:14.774Z,31.09
2022-08-18T11:19:20.283Z,31.12
2022-08-18T11:20:31.479Z,31.20
2022-08-18T11:21:43.404Z,31.29
2022-08-18T11:22:56.372Z,31.39
2022-08-18T11:24:07.702Z,31.47
2022-08-18T11:25:29.881Z,31.52
2022-08-18T11:26:35.511Z,31.52
2022-08-18T11:27:47.403Z,31.51
2022-08-18T11:28:50.126Z,31.49
2022-08-18T11:29:58.828Z,31.49
2022-08-18T11:31:01.067Z,31.50
2022-08-18T11:33:31.150Z,31.58
2022-08-18T11:36:08.461Z,31.60
2022-08-18T11:37:27.776Z,31.58
2022-08-18T11:38:31.612Z,31.51
2022-08-18T11:39:49.233Z,31.51
2022-08-18T11:41:13.571Z,31.54
2022-08-18T11:42:24.960Z,31.63
2022-08-18T11:43:41.513Z,31.72
2022-08-18T11:44:45.824Z,31.83
2022-08-18T11:46:16.431Z,31.94
2022-08-18T11:48:52.714Z,32.13
2022-08-18T11:50:12.504Z,32.22
2022-08-18T11:51:27.197Z,32.32
2022-08-18T11:53:58.921Z,32.54
2022-08-18T11:56:38.215Z,32.82
2022-08-18T11:57:54.496Z,32.95
2022-08-18T11:59:09.480Z,33.07
2022-08-18T12:00:42.831Z,33.12
2022-08-18T12:01:52.004Z,33.13
2022-08-18T12:03:08.695Z,33.13
2022-08-18T12:04:13.449Z,33.10
2022-08-18T12:05:15.234Z,33.05
2022-08-18T12:06:32.148Z,33.03
2022-08-18T12:07:35.887Z,33.04
2022-08-18T12:08:57.036Z,33.07
2022-08-18T12:10:26.296Z,33.17
2022-08-18T12:11:48.738Z,33.31
2022-08-18T12:12:54.051Z,33.44
2022-08-18T12:14:31.865Z,33.53
2022-08-18T12:15:43.472Z,33.62
2022-08-18T12:16:50.210Z,33.74
2022-08-18T12:17:53.795Z,33.81
2022-08-18T12:18:55.739Z,33.91
2022-08-18T12:19:59.741Z,34.01
2022-08-18T12:21:02.823Z,34.13
2022-08-18T12:22:17.620Z,34.24
2022-08-18T12:23:19.391Z,34.37
2022-08-18T12:24:36.760Z,34.48
2022-08-18T12:25:51.808Z,34.61
2022-08-18T12:26:54.478Z,34.69
2022-08-18T12:27:57.695Z,34.77
2022-08-18T12:30:21.297Z,34.93
2022-08-18T12:31:22.946Z,35.02
2022-08-18T12:32:49.491Z,35.12
2022-08-18T12:34:00.708Z,35.18
2022-08-18T12:35:09.317Z,35.23
2022-08-18T12:36:12.188Z,35.29
2022-08-18T12:37:58.377Z,35.34
2022-08-18T12:38:52.197Z,35.43
2022-08-18T12:39:59.640Z,35.48
2022-08-18T12:41:01.665Z,35.52
2022-08-18T12:42:04.983Z,35.53
2022-08-18T12:43:08.073Z,35.51
2022-08-18T12:44:13.177Z,35.47
2022-08-18T12:45:15.652Z,35.39
2022-08-18T12:46:18.256Z,35.33
2022-08-18T12:47:25.682Z,35.25
2022-08-18T12:48:32.846Z,35.14
2022-08-18T12:49:36.147Z,35.02
2022-08-18T12:50:54.523Z,34.87
2022-08-18T12:52:00.402Z,34.70
2022-08-18T12:53:05.805Z,34.59
2022-08-18T12:54:10.554Z,34.55
2022-08-18T12:56:36.422Z,34.62
2022-08-18T12:57:53.391Z,34.70
2022-08-18T12:58:56.954Z,34.81
2022-08-18T12:59:59.334Z,34.91
2022-08-18T13:01:01.469Z,35.01
2022-08-18T13:02:05.928Z,35.12
2022-08-18T13:03:08.588Z,35.22
2022-08-18T13:04:12.876Z,35.30
2022-08-18T13:05:15.459Z,35.37
2022-08-18T13:06:17.654Z,35.40
2022-08-18T13:07:20.560Z,35.38
2022-08-18T13:08:30.731Z,35.34
2022-08-18T13:09:52.770Z,35.28
2022-08-18T13:10:58.227Z,35.20
2022-08-18T13:12:00.367Z,35.14
2022-08-18T13:13:02.140Z,35.11
2022-08-18T13:14:08.984Z,35.12
2022-08-18T13:15:11.343Z,35.18
2022-08-18T13:16:16.502Z,35.27
2022-08-18T13:17:34.322Z,35.41
2022-08-18T13:18:37.621Z,35.51
2022-08-18T13:19:39.433Z,35.61
2022-08-18T13:20:45.225Z,35.71
2022-08-18T13:21:47.750Z,35.83
2022-08-18T13:22:51.528Z,35.93
2022-08-18T13:23:55.108Z,36.02
2022-08-18T13:24:56.814Z,36.10
2022-08-18T13:26:03.225Z,36.18
2022-08-18T13:27:18.467Z,36.27
2022-08-18T13:28:24.628Z,36.37
2022-08-18T13:29:32.183Z,36.45
2022-08-18T13:30:35.581Z,36.52
2022-08-18T13:31:38.638Z,36.58
2022-08-18T13:32:43.783Z,36.65
2022-08-18T13:34:00.667Z,36.72
2022-08-18T13:35:08.971Z,36.75
2022-08-18T13:36:15.091Z,36.75
2022-08-18T13:37:16.750Z,36.79
2022-08-18T13:38:27.221Z,36.82
2022-08-18T13:39:31.364Z,36.83
2022-08-18T13:40:38.048Z,36.83
2022-08-18T13:41:52.092Z,36.83
2022-08-18T13:42:54.418Z,36.87
2022-08-18T13:43:58.816Z,36.90
2022-08-18T13:45:25.367Z,36.90
2022-08-18T13:46:30.930Z,36.85
2022-08-18T13:47:38.073Z,36.81
2022-08-18T13:48:41.675Z,36.83
2022-08-18T13:49:43.547Z,36.87
2022-08-18T13:51:02.010Z,36.96
2022-08-18T13:52:12.224Z,37.04
2022-08-18T13:53:29.883Z,37.14
2022-08-18T13:54:35.271Z,37.24
2022-08-18T13:55:37.057Z,37.33
2022-08-18T13:56:39.794Z,37.41
2022-08-18T13:57:50.290Z,37.48
2022-08-18T13:58:55.352Z,37.59
2022-08-18T13:59:57.532Z,37.70
2022-08-18T14:01:39.777Z,37.80
2022-08-18T14:02:26.813Z,37.97
2022-08-18T14:03:42.321Z,38.09
2022-08-18T14:04:49.325Z,38.24
2022-08-18T14:06:01.059Z,38.35
2022-08-18T14:07:09.613Z,38.45
2022-08-18T14:08:19.235Z,38.53
2022-08-18T14:09:27.756Z,38.58
2022-08-18T14:10:38.467Z,38.65
2022-08-18T14:11:41.831Z,38.73
2022-08-18T14:12:45.800Z,38.81
2022-08-18T14:13:48.864Z,38.84
2022-08-18T14:14:55.577Z,38.85
2022-08-18T14:15:59.423Z,38.86
2022-08-18T14:17:01.415Z,38.89
2022-08-18T14:18:05.986Z,38.92
2022-08-18T14:19:26.217Z,38.96
2022-08-18T14:20:49.188Z,39.03
2022-08-18T14:22:13.508Z,39.11
2022-08-18T14:23:34.893Z,39.21
2022-08-18T14:25:00.533Z,39.30
2022-08-18T14:26:20.699Z,39.34
2022-08-18T14:27:35.058Z,39.36
2022-08-18T14:28:38.418Z,39.41
2022-08-18T14:29:46.770Z,39.48
2022-08-18T14:30:54.196Z,39.52
2022-08-18T14:31:57.265Z,39.57
2022-08-18T14:32:59.421Z,39.61
2022-08-18T14:34:04.147Z,39.67
2022-08-18T14:35:32.014Z,39.75
2022-08-18T14:36:31.421Z,39.86
2022-08-18T14:37:33.795Z,39.92
2022-08-18T14:38:36.573Z,39.93
2022-08-18T14:39:40.271Z,39.92
2022-08-18T14:40:45.077Z,39.91
2022-08-18T14:41:49.541Z,39.96
2022-08-18T14:42:57.922Z,40.01
2022-08-18T14:44:12.187Z,40.05
2022-08-18T14:45:26.407Z,40.09
2022-08-18T14:46:35.861Z,40.14
2022-08-18T14:47:37.548Z,40.13
2022-08-18T14:48:42.547Z,40.12
2022-08-18T14:49:49.606Z,40.07
2022-08-18T14:50:55.452Z,40.03
2022-08-18T14:51:59.015Z,39.97
2022-08-18T14:53:00.711Z,39.90
2022-08-18T14:54:03.013Z,39.85
2022-08-18T14:55:05.199Z,39.83
2022-08-18T14:56:09.255Z,39.79
2022-08-18T14:57:12.082Z,39.75
2022-08-18T14:58:14.402Z,39.71
2022-08-18T14:59:20.467Z,39.73
2022-08-18T15:00:22.853Z,39.77
2022-08-18T15:01:26.721Z,39.84
2022-08-18T15:02:28.728Z,39.92
2022-08-18T15:03:31.867Z,39.97
2022-08-18T15:04:33.867Z,40.02
2022-08-18T15:05:40.329Z,40.09
2022-08-18T15:06:44.091Z,40.16
2022-08-18T15:07:58.881Z,40.24
2022-08-18T15:09:00.544Z,40.30
2022-08-18T15:10:14.952Z,40.35
2022-08-18T15:11:19.357Z,40.40
2022-08-18T15:12:26.646Z,40.46
2022-08-18T15:13:28.633Z,40.51
2022-08-18T15:14:32.961Z,40.54
2022-08-18T15:15:50.615Z,40.54
2022-08-18T15:16:52.943Z,40.52
2022-08-18T15:17:54.617Z,40.50
2022-08-18T15:18:58.483Z,40.47
2022-08-18T15:20:01.219Z,40.41
2022-08-18T15:21:35.567Z,40.36
2022-08-18T15:23:01.974Z,40.26
2022-08-18T15:24:25.813Z,40.20
2022-08-18T15:26:02.434Z,40.20
2022-08-18T15:27:10.413Z,40.19
2022-08-18T15:28:23.765Z,40.12